Falconia — H3QI — position and weather

sailwx.info

Track history (hours):
 
Tides and Currents Weather Stations Pressure Air Temp Water Temp Dewpoint Dewpoint Depression Visibility Wind Speed Wind Dir Waves Ship Positions

Falconia

Last reported at 2016-May-03 01:21 UTC. Time now 2016-Jun-01 05:35 UTC.
Position S 39°12' E 150°59'.
Warning: this ship's position is 29 days out of date.

Length 88 m; draft 4.1 m.

Type: Cargo ship. MMSI: 353620000.

Date/timePositionNaut miles runAvg speedWind from/ knotsBaromVisibWave heightAir tempDewpointWater temp
2016-May-03 01:21S 39°12' E 150°59'9 8.8
2016-May-03 00:20S 39°12' E 150°48'166 8.8
2016-May-02 05:33S 39°02' E 147°15'9 9.0
2016-May-02 04:33S 39°05' E 147°04'9 9.2
2016-May-02 03:33S 39°10' E 146°54'9 9.4
2016-May-02 02:33S 39°13' E 146°43'10 9.6
2016-May-02 01:33S 39°17' E 146°31'10 9.7
2016-May-02 00:33S 39°17' E 146°19'10 9.6
2016-May-01 23:33S 39°17' E 146°06'10 9.5
2016-May-01 22:33S 39°16' E 145°54'  
Track history (hours):
 
Tides and Currents Weather Stations Pressure Air Temp Water Temp Dewpoint Dewpoint Depression Visibility Wind Speed Wind Dir Waves Ship Positions

Falconia

Last reported at 2016-May-03 01:21 UTC. Time now 2016-Jun-01 05:35 UTC.
Position S 39°12' E 150°59'.
Warning: this ship's position is 29 days out of date.

Length 88 m; draft 4.1 m.

Type: Cargo ship. MMSI: 353620000.

Date/timePositionNaut miles runAvg speedWind from/ knotsBaromVisibWave heightAir tempDewpointWater temp
2016-May-03 01:21S 39°12' E 150°59'9 8.8
2016-May-03 00:20S 39°12' E 150°48'166 8.8
2016-May-02 05:33S 39°02' E 147°15'9 9.0
2016-May-02 04:33S 39°05' E 147°04'9 9.2
2016-May-02 03:33S 39°10' E 146°54'9 9.4
2016-May-02 02:33S 39°13' E 146°43'10 9.6
2016-May-02 01:33S 39°17' E 146°31'10 9.7
2016-May-02 00:33S 39°17' E 146°19'10 9.6
2016-May-01 23:33S 39°17' E 146°06'10 9.5
2016-May-01 22:33S 39°16' E 145°54'  

Dump ship's entire track history